sensor_id;sensor_type;location;lat;lon;timestamp;pressure;altitude;pressure_sealevel;temperature;humidity
21203;BME280;10759;51.982;9.232;2023-07-13T00:01:19;100172.16;;;19.07;83.16
21203;BME280;10759;51.982;9.232;2023-07-13T00:03:47;100169.94;;;19.13;82.48
21203;BME280;10759;51.982;9.232;2023-07-13T00:06:15;100150.72;;;18.92;82.75
21203;BME280;10759;51.982;9.232;2023-07-13T00:08:43;100151.72;;;18.91;82.27
21203;BME280;10759;51.982;9.232;2023-07-13T00:11:11;100179.72;;;18.91;83.41
21203;BME280;10759;51.982;9.232;2023-07-13T00:13:41;100177.47;;;18.85;82.96
21203;BME280;10759;51.982;9.232;2023-07-13T00:16:10;100184.88;;;18.83;82.47
21203;BME280;10759;51.982;9.232;2023-07-13T00:18:40;100179.91;;;18.77;82.27
21203;BME280;10759;51.982;9.232;2023-07-13T00:21:08;100158.28;;;18.51;82.98
21203;BME280;10759;51.982;9.232;2023-07-13T00:23:38;100175.53;;;18.74;81.99
21203;BME280;10759;51.982;9.232;2023-07-13T00:26:08;100173.84;;;18.60;82.93
21203;BME280;10759;51.982;9.232;2023-07-13T00:28:38;100180.16;;;18.61;82.92
21203;BME280;10759;51.982;9.232;2023-07-13T00:31:08;100180.19;;;18.48;83.55
21203;BME280;10759;51.982;9.232;2023-07-13T00:33:37;100182.69;;;18.51;83.17
21203;BME280;10759;51.982;9.232;2023-07-13T00:36:05;100178.56;;;18.45;83.04
21203;BME280;10759;51.982;9.232;2023-07-13T00:38:34;100183.94;;;18.34;82.72
21203;BME280;10759;51.982;9.232;2023-07-13T00:41:03;100182.56;;;18.29;83.43
21203;BME280;10759;51.982;9.232;2023-07-13T00:43:31;100177.84;;;18.31;82.89
21203;BME280;10759;51.982;9.232;2023-07-13T00:46:17;100166.41;;;18.14;83.07
21203;BME280;10759;51.982;9.232;2023-07-13T00:48:47;100157.09;;;18.06;83.11
21203;BME280;10759;51.982;9.232;2023-07-13T00:51:19;100170.78;;;18.04;83.66
21203;BME280;10759;51.982;9.232;2023-07-13T00:53:49;100147.22;;;17.79;84.02
21203;BME280;10759;51.982;9.232;2023-07-13T00:56:18;100165.13;;;17.81;84.99
21203;BME280;10759;51.982;9.232;2023-07-13T00:58:46;100164.06;;;17.84;85.00
21203;BME280;10759;51.982;9.232;2023-07-13T01:01:15;100167.50;;;17.73;85.60
21203;BME280;10759;51.982;9.232;2023-07-13T01:03:43;100159.25;;;17.49;86.02
21203;BME280;10759;51.982;9.232;2023-07-13T01:06:13;100181.16;;;17.46;86.73
21203;BME280;10759;51.982;9.232;2023-07-13T01:08:41;100178.66;;;17.43;87.15
21203;BME280;10759;51.982;9.232;2023-07-13T01:11:09;100177.69;;;17.44;87.03
21203;BME280;10759;51.982;9.232;2023-07-13T01:13:37;100179.44;;;17.45;86.98
21203;BME280;10759;51.982;9.232;2023-07-13T01:16:13;100093.25;;;16.86;87.42
21203;BME280;10759;51.982;9.232;2023-07-13T01:18:44;100180.28;;;17.46;87.13
21203;BME280;10759;51.982;9.232;2023-07-13T01:21:14;100150.81;;;17.28;87.30
21203;BME280;10759;51.982;9.232;2023-07-13T01:23:42;100180.47;;;17.30;87.75
21203;BME280;10759;51.982;9.232;2023-07-13T01:26:10;100177.75;;;17.17;88.52
21203;BME280;10759;51.982;9.232;2023-07-13T01:28:39;100072.16;;;16.51;88.58
21203;BME280;10759;51.982;9.232;2023-07-13T01:31:07;100177.09;;;17.01;88.91
21203;BME280;10759;51.982;9.232;2023-07-13T01:33:37;100161.78;;;17.00;88.67
21203;BME280;10759;51.982;9.232;2023-07-13T01:36:06;100179.66;;;17.02;88.94
21203;BME280;10759;51.982;9.232;2023-07-13T01:38:37;100174.16;;;17.04;88.72
21203;BME280;10759;51.982;9.232;2023-07-13T01:41:06;100188.03;;;17.12;87.81
21203;BME280;10759;51.982;9.232;2023-07-13T01:43:34;100183.69;;;17.09;88.09
21203;BME280;10759;51.982;9.232;2023-07-13T01:46:02;100191.72;;;17.11;87.43
21203;BME280;10759;51.982;9.232;2023-07-13T01:48:48;100178.72;;;17.16;87.05
21203;BME280;10759;51.982;9.232;2023-07-13T01:51:18;100188.22;;;16.96;87.35
21203;BME280;10759;51.982;9.232;2023-07-13T01:53:48;100195.75;;;17.18;86.70
21203;BME280;10759;51.982;9.232;2023-07-13T01:56:16;100197.19;;;16.97;87.58
21203;BME280;10759;51.982;9.232;2023-07-13T01:58:45;100153.22;;;16.66;88.34
21203;BME280;10759;51.982;9.232;2023-07-13T02:01:13;100190.84;;;16.83;88.38
21203;BME280;10759;51.982;9.232;2023-07-13T02:03:42;100195.53;;;16.81;88.91
21203;BME280;10759;51.982;9.232;2023-07-13T02:06:10;100199.31;;;16.79;89.00
21203;BME280;10759;51.982;9.232;2023-07-13T02:08:40;100159.13;;;16.58;89.07
21203;BME280;10759;51.982;9.232;2023-07-13T02:11:10;100193.38;;;16.86;88.65
21203;BME280;10759;51.982;9.232;2023-07-13T02:13:38;100195.78;;;16.91;88.05
21203;BME280;10759;51.982;9.232;2023-07-13T02:16:06;100194.25;;;16.87;88.29
21203;BME280;10759;51.982;9.232;2023-07-13T02:18:34;100180.06;;;16.69;89.34
21203;BME280;10759;51.982;9.232;2023-07-13T02:21:02;100175.72;;;16.39;90.80
21203;BME280;10759;51.982;9.232;2023-07-13T02:23:30;100185.75;;;16.51;90.78
21203;BME280;10759;51.982;9.232;2023-07-13T02:25:59;100163.19;;;16.24;90.76
21203;BME280;10759;51.982;9.232;2023-07-13T02:28:30;100198.09;;;16.41;91.06
21203;BME280;10759;51.982;9.232;2023-07-13T02:31:04;100195.31;;;16.43;91.42
21203;BME280;10759;51.982;9.232;2023-07-13T02:33:32;100191.53;;;16.45;91.40
21203;BME280;10759;51.982;9.232;2023-07-13T02:36:00;100193.75;;;16.39;91.41
21203;BME280;10759;51.982;9.232;2023-07-13T02:38:28;100188.66;;;16.34;91.73
21203;BME280;10759;51.982;9.232;2023-07-13T02:40:56;100114.59;;;15.95;91.46
21203;BME280;10759;51.982;9.232;2023-07-13T02:43:24;100188.84;;;16.31;91.62
21203;BME280;10759;51.982;9.232;2023-07-13T02:45:54;100192.16;;;16.22;92.09
21203;BME280;10759;51.982;9.232;2023-07-13T02:48:22;100181.16;;;16.10;92.91
21203;BME280;10759;51.982;9.232;2023-07-13T02:50:50;100144.13;;;15.84;92.79
21203;BME280;10759;51.982;9.232;2023-07-13T02:53:19;100186.16;;;16.17;93.08
21203;BME280;10759;51.982;9.232;2023-07-13T02:55:47;100120.50;;;15.73;92.74
21203;BME280;10759;51.982;9.232;2023-07-13T02:58:15;100189.56;;;16.06;93.38
21203;BME280;10759;51.982;9.232;2023-07-13T03:00:43;100206.84;;;16.18;92.71
21203;BME280;10759;51.982;9.232;2023-07-13T03:03:14;100204.72;;;16.23;93.04
21203;BME280;10759;51.982;9.232;2023-07-13T03:05:44;100206.97;;;15.87;94.31
21203;BME280;10759;51.982;9.232;2023-07-13T03:08:21;100209.25;;;15.94;95.55
21203;BME280;10759;51.982;9.232;2023-07-13T03:10:59;100209.19;;;15.65;94.60
21203;BME280;10759;51.982;9.232;2023-07-13T03:13:29;100208.66;;;15.74;96.33
21203;BME280;10759;51.982;9.232;2023-07-13T03:15:57;100210.22;;;15.78;95.65
21203;BME280;10759;51.982;9.232;2023-07-13T03:18:27;100175.94;;;15.64;96.25
21203;BME280;10759;51.982;9.232;2023-07-13T03:21:00;100188.63;;;15.78;95.93
21203;BME280;10759;51.982;9.232;2023-07-13T03:23:28;100207.31;;;15.81;96.13
21203;BME280;10759;51.982;9.232;2023-07-13T03:26:04;100208.41;;;15.93;95.71
21203;BME280;10759;51.982;9.232;2023-07-13T03:28:33;100205.22;;;16.01;95.25
21203;BME280;10759;51.982;9.232;2023-07-13T03:31:07;100213.81;;;16.07;94.99
21203;BME280;10759;51.982;9.232;2023-07-13T03:33:37;100218.03;;;15.97;95.68
21203;BME280;10759;51.982;9.232;2023-07-13T03:36:06;100180.41;;;15.80;95.68
21203;BME280;10759;51.982;9.232;2023-07-13T03:38:35;100196.25;;;16.00;95.05
21203;BME280;10759;51.982;9.232;2023-07-13T03:41:03;100203.38;;;16.16;93.83
21203;BME280;10759;51.982;9.232;2023-07-13T03:43:31;100210.41;;;16.18;93.92
21203;BME280;10759;51.982;9.232;2023-07-13T03:45:59;100211.84;;;16.24;93.48
21203;BME280;10759;51.982;9.232;2023-07-13T03:48:27;100207.50;;;16.21;93.37
21203;BME280;10759;51.982;9.232;2023-07-13T03:50:57;100205.84;;;16.33;93.06
21203;BME280;10759;51.982;9.232;2023-07-13T03:53:25;100206.16;;;16.14;93.67
21203;BME280;10759;51.982;9.232;2023-07-13T03:55:53;100208.78;;;16.16;93.92
21203;BME280;10759;51.982;9.232;2023-07-13T03:58:29;100204.06;;;16.05;94.38
21203;BME280;10759;51.982;9.232;2023-07-13T04:01:05;100167.66;;;15.82;94.83
21203;BME280;10759;51.982;9.232;2023-07-13T04:03:34;100206.75;;;16.05;95.47
21203;BME280;10759;51.982;9.232;2023-07-13T04:06:06;100220.94;;;15.94;95.63
21203;BME280;10759;51.982;9.232;2023-07-13T04:08:36;100230.41;;;16.01;96.05
21203;BME280;10759;51.982;9.232;2023-07-13T04:11:05;100228.47;;;15.89;96.53
21203;BME280;10759;51.982;9.232;2023-07-13T04:13:32;100229.03;;;15.80;96.73
21203;BME280;10759;51.982;9.232;2023-07-13T04:16:00;100238.59;;;16.14;96.27
21203;BME280;10759;51.982;9.232;2023-07-13T04:18:28;100234.81;;;16.31;95.01
21203;BME280;10759;51.982;9.232;2023-07-13T04:20:56;100142.97;;;15.88;94.99
21203;BME280;10759;51.982;9.232;2023-07-13T04:23:25;100230.53;;;16.56;94.47
21203;BME280;10759;51.982;9.232;2023-07-13T04:25:53;100233.00;;;16.87;92.60
21203;BME280;10759;51.982;9.232;2023-07-13T04:28:22;100238.34;;;17.42;89.41
21203;BME280;10759;51.982;9.232;2023-07-13T04:30:51;100226.81;;;17.65;87.28
21203;BME280;10759;51.982;9.232;2023-07-13T04:33:19;100196.31;;;17.74;85.48
21203;BME280;10759;51.982;9.232;2023-07-13T04:35:49;100241.88;;;18.20;82.74
21203;BME280;10759;51.982;9.232;2023-07-13T04:38:21;100238.38;;;18.44;82.96
21203;BME280;10759;51.982;9.232;2023-07-13T04:40:50;100233.97;;;18.67;80.71
21203;BME280;10759;51.982;9.232;2023-07-13T04:43:18;100224.97;;;18.66;81.39
21203;BME280;10759;51.982;9.232;2023-07-13T04:45:46;100247.81;;;19.36;78.44
21203;BME280;10759;51.982;9.232;2023-07-13T04:48:14;100199.91;;;19.46;76.72
21203;BME280;10759;51.982;9.232;2023-07-13T04:50:42;100251.09;;;20.22;72.07
21203;BME280;10759;51.982;9.232;2023-07-13T04:53:10;100250.13;;;20.56;68.76
21203;BME280;10759;51.982;9.232;2023-07-13T04:55:39;100246.72;;;20.98;69.27
21203;BME280;10759;51.982;9.232;2023-07-13T04:58:08;100253.94;;;20.88;66.74
21203;BME280;10759;51.982;9.232;2023-07-13T05:00:37;100252.69;;;20.80;65.03
21203;BME280;10759;51.982;9.232;2023-07-13T05:03:05;100247.00;;;20.84;66.47
21203;BME280;10759;51.982;9.232;2023-07-13T05:05:33;100251.16;;;20.99;63.44
21203;BME280;10759;51.982;9.232;2023-07-13T05:08:01;100251.44;;;21.28;63.07
21203;BME280;10759;51.982;9.232;2023-07-13T05:10:29;100249.56;;;21.40;60.79
21203;BME280;10759;51.982;9.232;2023-07-13T05:12:57;100242.78;;;21.23;60.16
21203;BME280;10759;51.982;9.232;2023-07-13T05:15:27;100253.50;;;21.04;61.52
21203;BME280;10759;51.982;9.232;2023-07-13T05:17:55;100255.75;;;20.98;60.48
21203;BME280;10759;51.982;9.232;2023-07-13T05:20:23;100256.19;;;20.71;61.83
21203;BME280;10759;51.982;9.232;2023-07-13T05:22:50;100251.97;;;20.67;63.99
21203;BME280;10759;51.982;9.232;2023-07-13T05:25:18;100227.25;;;20.48;63.58
21203;BME280;10759;51.982;9.232;2023-07-13T05:27:46;100251.97;;;20.45;64.43
21203;BME280;10759;51.982;9.232;2023-07-13T05:30:15;100251.31;;;20.86;62.19
21203;BME280;10759;51.982;9.232;2023-07-13T05:32:44;100251.59;;;20.83;62.68
21203;BME280;10759;51.982;9.232;2023-07-13T05:35:12;100249.00;;;20.70;62.13
21203;BME280;10759;51.982;9.232;2023-07-13T05:37:40;100245.28;;;20.37;63.74
21203;BME280;10759;51.982;9.232;2023-07-13T05:40:08;100252.22;;;20.64;64.22
21203;BME280;10759;51.982;9.232;2023-07-13T05:42:36;100255.31;;;20.71;62.41
21203;BME280;10759;51.982;9.232;2023-07-13T05:45:05;100244.81;;;20.66;62.54
21203;BME280;10759;51.982;9.232;2023-07-13T05:47:33;100250.72;;;20.71;61.95
21203;BME280;10759;51.982;9.232;2023-07-13T05:50:03;100252.09;;;20.32;63.26
21203;BME280;10759;51.982;9.232;2023-07-13T05:52:32;100249.00;;;20.48;63.47
21203;BME280;10759;51.982;9.232;2023-07-13T05:55:00;100254.94;;;20.53;63.68
21203;BME280;10759;51.982;9.232;2023-07-13T05:57:28;100256.91;;;20.85;61.65
21203;BME280;10759;51.982;9.232;2023-07-13T05:59:56;100263.44;;;20.82;61.24
21203;BME280;10759;51.982;9.232;2023-07-13T06:02:24;100269.19;;;20.68;62.25
21203;BME280;10759;51.982;9.232;2023-07-13T06:04:52;100273.03;;;20.65;62.39
21203;BME280;10759;51.982;9.232;2023-07-13T06:07:21;100272.03;;;20.66;62.33
21203;BME280;10759;51.982;9.232;2023-07-13T06:09:49;100274.59;;;20.34;63.15
21203;BME280;10759;51.982;9.232;2023-07-13T06:12:17;100277.94;;;20.15;65.66
21203;BME280;10759;51.982;9.232;2023-07-13T06:14:45;100209.41;;;19.87;64.74
21203;BME280;10759;51.982;9.232;2023-07-13T06:17:13;100283.09;;;19.60;67.07
21203;BME280;10759;51.982;9.232;2023-07-13T06:19:41;100288.94;;;19.67;67.10
21203;BME280;10759;51.982;9.232;2023-07-13T06:22:09;100295.25;;;19.67;67.52
21203;BME280;10759;51.982;9.232;2023-07-13T06:24:38;100302.22;;;19.83;66.83
21203;BME280;10759;51.982;9.232;2023-07-13T06:27:06;100304.69;;;19.75;67.32
21203;BME280;10759;51.982;9.232;2023-07-13T06:29:34;100307.75;;;19.81;68.13
21203;BME280;10759;51.982;9.232;2023-07-13T06:32:02;100309.72;;;19.68;67.10
21203;BME280;10759;51.982;9.232;2023-07-13T06:34:30;100314.59;;;19.63;67.09
21203;BME280;10759;51.982;9.232;2023-07-13T06:36:58;100320.91;;;19.63;67.81
21203;BME280;10759;51.982;9.232;2023-07-13T06:39:26;100303.97;;;19.60;69.26
21203;BME280;10759;51.982;9.232;2023-07-13T06:41:55;100321.81;;;19.99;67.19
21203;BME280;10759;51.982;9.232;2023-07-13T06:44:23;100324.38;;;20.01;66.36
21203;BME280;10759;51.982;9.232;2023-07-13T06:46:51;100327.09;;;20.01;66.18
21203;BME280;10759;51.982;9.232;2023-07-13T06:49:19;100251.94;;;19.53;65.38
21203;BME280;10759;51.982;9.232;2023-07-13T06:51:47;100334.09;;;19.81;67.21
21203;BME280;10759;51.982;9.232;2023-07-13T06:54:15;100320.28;;;19.60;66.79
21203;BME280;10759;51.982;9.232;2023-07-13T06:56:43;100323.63;;;19.87;66.45
21203;BME280;10759;51.982;9.232;2023-07-13T06:59:12;100326.94;;;19.80;69.40
21203;BME280;10759;51.982;9.232;2023-07-13T07:01:40;100172.78;;;18.87;68.20
21203;BME280;10759;51.982;9.232;2023-07-13T07:04:08;100324.88;;;19.94;68.36
21203;BME280;10759;51.982;9.232;2023-07-13T07:06:36;100324.22;;;19.80;70.46
21203;BME280;10759;51.982;9.232;2023-07-13T07:09:04;100327.38;;;20.09;69.27
21203;BME280;10759;51.982;9.232;2023-07-13T07:11:32;100324.25;;;20.60;67.19
21203;BME280;10759;51.982;9.232;2023-07-13T07:14:00;100336.38;;;20.56;66.02
21203;BME280;10759;51.982;9.232;2023-07-13T07:16:29;100245.44;;;20.13;66.26
21203;BME280;10759;51.982;9.232;2023-07-13T07:18:57;100334.00;;;20.74;67.56
21203;BME280;10759;51.982;9.232;2023-07-13T07:21:25;100245.44;;;20.58;62.87
21203;BME280;10759;51.982;9.232;2023-07-13T07:23:54;100331.78;;;21.34;62.42
21203;BME280;10759;51.982;9.232;2023-07-13T07:26:21;100338.88;;;21.25;62.82
21203;BME280;10759;51.982;9.232;2023-07-13T07:28:55;100218.94;;;20.27;62.21
21203;BME280;10759;51.982;9.232;2023-07-13T07:31:25;100336.97;;;20.93;63.54
21203;BME280;10759;51.982;9.232;2023-07-13T07:33:58;100340.31;;;20.97;64.20
21203;BME280;10759;51.982;9.232;2023-07-13T07:36:26;100336.59;;;20.98;62.94
21203;BME280;10759;51.982;9.232;2023-07-13T07:38:57;100334.34;;;21.03;63.02
21203;BME280;10759;51.982;9.232;2023-07-13T07:41:25;100336.09;;;20.82;63.95
21203;BME280;10759;51.982;9.232;2023-07-13T07:43:56;100335.00;;;20.73;65.15
21203;BME280;10759;51.982;9.232;2023-07-13T07:46:23;100333.34;;;21.04;69.31
21203;BME280;10759;51.982;9.232;2023-07-13T07:48:51;100315.38;;;21.13;64.76
21203;BME280;10759;51.982;9.232;2023-07-13T07:51:21;100336.38;;;21.44;64.21
21203;BME280;10759;51.982;9.232;2023-07-13T07:53:49;100326.13;;;21.26;64.06
21203;BME280;10759;51.982;9.232;2023-07-13T07:56:16;100348.53;;;21.40;62.42
21203;BME280;10759;51.982;9.232;2023-07-13T07:58:47;100342.19;;;21.51;63.33
21203;BME280;10759;51.982;9.232;2023-07-13T08:01:18;100338.19;;;21.55;61.04
21203;BME280;10759;51.982;9.232;2023-07-13T08:03:49;100303.63;;;21.56;61.57
21203;BME280;10759;51.982;9.232;2023-07-13T08:06:21;100347.47;;;21.85;62.08
21203;BME280;10759;51.982;9.232;2023-07-13T08:08:52;100350.59;;;21.59;62.05
21203;BME280;10759;51.982;9.232;2023-07-13T08:11:21;100335.81;;;21.62;61.49
21203;BME280;10759;51.982;9.232;2023-07-13T08:13:52;100352.53;;;21.69;62.46
21203;BME280;10759;51.982;9.232;2023-07-13T08:16:22;100351.25;;;21.73;65.07
21203;BME280;10759;51.982;9.232;2023-07-13T08:18:50;100303.03;;;21.52;64.67
21203;BME280;10759;51.982;9.232;2023-07-13T08:21:18;100349.38;;;21.73;63.27
21203;BME280;10759;51.982;9.232;2023-07-13T08:23:48;100364.78;;;21.95;62.07
21203;BME280;10759;51.982;9.232;2023-07-13T08:26:16;100368.59;;;22.04;63.44
21203;BME280;10759;51.982;9.232;2023-07-13T08:28:45;100359.09;;;21.98;62.63
21203;BME280;10759;51.982;9.232;2023-07-13T08:31:13;100269.66;;;21.39;62.86
21203;BME280;10759;51.982;9.232;2023-07-13T08:33:42;100375.47;;;21.98;62.99
21203;BME280;10759;51.982;9.232;2023-07-13T08:36:10;100337.38;;;21.97;61.41
21203;BME280;10759;51.982;9.232;2023-07-13T08:38:38;100373.31;;;21.81;62.28
21203;BME280;10759;51.982;9.232;2023-07-13T08:41:21;100364.19;;;21.92;65.28
21203;BME280;10759;51.982;9.232;2023-07-13T08:43:51;100371.88;;;22.19;62.55
21203;BME280;10759;51.982;9.232;2023-07-13T08:46:25;100367.19;;;22.09;62.04
21203;BME280;10759;51.982;9.232;2023-07-13T08:48:56;100357.19;;;22.31;65.71
21203;BME280;10759;51.982;9.232;2023-07-13T08:51:28;100363.03;;;22.78;59.93
21203;BME280;10759;51.982;9.232;2023-07-13T08:54:01;100344.34;;;22.83;58.93
21203;BME280;10759;51.982;9.232;2023-07-13T08:56:32;100352.13;;;23.19;62.03
21203;BME280;10759;51.982;9.232;2023-07-13T08:59:18;100320.19;;;23.19;58.32
21203;BME280;10759;51.982;9.232;2023-07-13T09:02:06;100351.75;;;23.52;58.08
21203;BME280;10759;51.982;9.232;2023-07-13T09:04:42;100353.66;;;23.91;57.65
21203;BME280;10759;51.982;9.232;2023-07-13T09:07:21;100353.50;;;24.02;55.12
21203;BME280;10759;51.982;9.232;2023-07-13T09:10:02;100349.16;;;23.41;56.48
21203;BME280;10759;51.982;9.232;2023-07-13T09:12:40;100345.34;;;23.13;54.63
21203;BME280;10759;51.982;9.232;2023-07-13T09:15:22;100342.72;;;22.71;59.73
21203;BME280;10759;51.982;9.232;2023-07-13T09:17:54;100341.44;;;23.06;57.89
21203;BME280;10759;51.982;9.232;2023-07-13T09:20:26;100352.00;;;23.30;55.08
21203;BME280;10759;51.982;9.232;2023-07-13T09:22:56;100355.31;;;23.33;56.07
21203;BME280;10759;51.982;9.232;2023-07-13T09:25:30;100346.00;;;23.46;56.65
21203;BME280;10759;51.982;9.232;2023-07-13T09:28:02;100295.47;;;23.40;52.91
21203;BME280;10759;51.982;9.232;2023-07-13T09:30:40;100350.44;;;23.47;52.26
21203;BME280;10759;51.982;9.232;2023-07-13T09:33:12;100348.84;;;23.44;53.62
21203;BME280;10759;51.982;9.232;2023-07-13T09:35:41;100355.81;;;23.68;53.86
21203;BME280;10759;51.982;9.232;2023-07-13T09:38:15;100332.72;;;23.22;53.81
21203;BME280;10759;51.982;9.232;2023-07-13T09:40:53;100356.31;;;23.32;55.62
21203;BME280;10759;51.982;9.232;2023-07-13T09:43:27;100350.00;;;23.42;56.61
21203;BME280;10759;51.982;9.232;2023-07-13T09:45:55;100339.13;;;23.81;52.03
21203;BME280;10759;51.982;9.232;2023-07-13T09:48:23;100322.06;;;23.38;53.12
21203;BME280;10759;51.982;9.232;2023-07-13T09:50:54;100244.28;;;22.72;53.34
21203;BME280;10759;51.982;9.232;2023-07-13T09:53:23;100355.50;;;23.51;54.56
21203;BME280;10759;51.982;9.232;2023-07-13T09:55:51;100350.84;;;23.32;52.96
21203;BME280;10759;51.982;9.232;2023-07-13T09:58:21;100352.41;;;23.25;53.47
21203;BME280;10759;51.982;9.232;2023-07-13T10:00:57;100350.72;;;23.34;59.30
21203;BME280;10759;51.982;9.232;2023-07-13T10:03:27;100334.47;;;23.42;54.01
21203;BME280;10759;51.982;9.232;2023-07-13T10:06:06;100345.00;;;23.66;53.24
21203;BME280;10759;51.982;9.232;2023-07-13T10:08:38;100349.03;;;24.01;52.52
21203;BME280;10759;51.982;9.232;2023-07-13T10:11:10;100354.94;;;23.87;50.95
21203;BME280;10759;51.982;9.232;2023-07-13T10:13:42;100344.84;;;23.48;51.73
21203;BME280;10759;51.982;9.232;2023-07-13T10:16:12;100342.44;;;23.05;52.88
21203;BME280;10759;51.982;9.232;2023-07-13T10:18:44;100352.31;;;23.36;53.25
21203;BME280;10759;51.982;9.232;2023-07-13T10:21:15;100302.78;;;23.30;52.52
21203;BME280;10759;51.982;9.232;2023-07-13T10:23:50;100344.84;;;23.58;52.56
21203;BME280;10759;51.982;9.232;2023-07-13T10:26:22;100360.09;;;23.51;52.66
21203;BME280;10759;51.982;9.232;2023-07-13T10:28:54;100357.56;;;23.78;51.65
21203;BME280;10759;51.982;9.232;2023-07-13T10:31:25;100363.13;;;24.26;50.99
21203;BME280;10759;51.982;9.232;2023-07-13T10:33:53;100359.13;;;23.91;49.71
21203;BME280;10759;51.982;9.232;2023-07-13T10:36:30;100373.63;;;23.62;49.26
21203;BME280;10759;51.982;9.232;2023-07-13T10:39:03;100366.81;;;23.27;50.74
21203;BME280;10759;51.982;9.232;2023-07-13T10:41:36;100371.53;;;23.25;52.27
21203;BME280;10759;51.982;9.232;2023-07-13T10:44:09;100373.91;;;23.49;51.75
21203;BME280;10759;51.982;9.232;2023-07-13T10:46:45;100374.47;;;23.63;52.78
21203;BME280;10759;51.982;9.232;2023-07-13T10:49:13;100374.22;;;23.66;51.41
21203;BME280;10759;51.982;9.232;2023-07-13T10:51:42;100370.81;;;23.83;50.08
21203;BME280;10759;51.982;9.232;2023-07-13T10:54:15;100363.00;;;24.17;48.83
21203;BME280;10759;51.982;9.232;2023-07-13T10:56:48;100360.47;;;24.53;55.03
21203;BME280;10759;51.982;9.232;2023-07-13T10:59:23;100366.78;;;24.63;49.83
21203;BME280;10759;51.982;9.232;2023-07-13T11:01:57;100359.66;;;24.33;46.68
21203;BME280;10759;51.982;9.232;2023-07-13T11:04:27;100374.69;;;24.10;47.27
21203;BME280;10759;51.982;9.232;2023-07-13T11:06:58;100320.72;;;23.73;45.65
21203;BME280;10759;51.982;9.232;2023-07-13T11:09:33;100348.00;;;24.02;48.53
21203;BME280;10759;51.982;9.232;2023-07-13T11:12:07;100366.41;;;24.49;49.57
21203;BME280;10759;51.982;9.232;2023-07-13T11:15:06;100375.56;;;24.77;47.31
21203;BME280;10759;51.982;9.232;2023-07-13T11:17:48;100371.94;;;24.10;46.13
21203;BME280;10759;51.982;9.232;2023-07-13T11:20:22;100342.41;;;23.94;46.83
21203;BME280;10759;51.982;9.232;2023-07-13T11:22:52;100363.03;;;23.88;46.15
21203;BME280;10759;51.982;9.232;2023-07-13T11:25:36;100377.38;;;23.51;47.41
21203;BME280;10759;51.982;9.232;2023-07-13T11:28:14;100361.22;;;23.29;47.71
21203;BME280;10759;51.982;9.232;2023-07-13T11:30:46;100372.13;;;23.19;48.69
21203;BME280;10759;51.982;9.232;2023-07-13T11:33:19;100366.25;;;23.24;48.92
21203;BME280;10759;51.982;9.232;2023-07-13T11:35:57;100363.59;;;23.03;50.02
21203;BME280;10759;51.982;9.232;2023-07-13T11:38:33;100371.31;;;23.48;50.30
21203;BME280;10759;51.982;9.232;2023-07-13T11:41:05;100380.25;;;23.69;49.94
21203;BME280;10759;51.982;9.232;2023-07-13T11:43:34;100373.66;;;24.01;48.63
21203;BME280;10759;51.982;9.232;2023-07-13T11:46:20;100362.69;;;23.62;50.88
21203;BME280;10759;51.982;9.232;2023-07-13T11:48:51;100367.03;;;24.04;48.26
21203;BME280;10759;51.982;9.232;2023-07-13T11:51:21;100376.94;;;24.24;47.01
21203;BME280;10759;51.982;9.232;2023-07-13T11:53:53;100367.34;;;24.00;47.29
21203;BME280;10759;51.982;9.232;2023-07-13T11:56:24;100371.78;;;23.92;47.55
21203;BME280;10759;51.982;9.232;2023-07-13T11:58:55;100362.84;;;23.90;47.50
21203;BME280;10759;51.982;9.232;2023-07-13T12:01:27;100354.22;;;23.94;47.59
21203;BME280;10759;51.982;9.232;2023-07-13T12:04:02;100351.63;;;24.22;48.45
21203;BME280;10759;51.982;9.232;2023-07-13T12:06:32;100355.00;;;24.43;48.30
21203;BME280;10759;51.982;9.232;2023-07-13T12:09:08;100322.84;;;24.55;45.72
21203;BME280;10759;51.982;9.232;2023-07-13T12:11:40;100340.47;;;24.53;45.89
21203;BME280;10759;51.982;9.232;2023-07-13T12:14:13;100356.59;;;24.46;46.55
21203;BME280;10759;51.982;9.232;2023-07-13T12:16:43;100346.97;;;24.42;46.90
21203;BME280;10759;51.982;9.232;2023-07-13T12:19:17;100354.06;;;24.15;46.86
21203;BME280;10759;51.982;9.232;2023-07-13T12:21:47;100344.72;;;23.89;49.09
21203;BME280;10759;51.982;9.232;2023-07-13T12:24:17;100356.09;;;24.04;47.90
21203;BME280;10759;51.982;9.232;2023-07-13T12:26:50;100344.84;;;24.16;47.41
21203;BME280;10759;51.982;9.232;2023-07-13T12:29:19;100349.03;;;24.11;46.79
21203;BME280;10759;51.982;9.232;2023-07-13T12:31:49;100334.34;;;24.02;47.57
21203;BME280;10759;51.982;9.232;2023-07-13T12:34:23;100355.78;;;24.16;46.92
21203;BME280;10759;51.982;9.232;2023-07-13T12:36:53;100354.09;;;23.86;48.01
21203;BME280;10759;51.982;9.232;2023-07-13T12:39:23;100357.84;;;23.85;49.76
21203;BME280;10759;51.982;9.232;2023-07-13T12:41:53;100313.75;;;23.59;48.44
21203;BME280;10759;51.982;9.232;2023-07-13T12:44:26;100342.13;;;23.97;48.72
21203;BME280;10759;51.982;9.232;2023-07-13T12:46:57;100352.59;;;23.72;49.74
21203;BME280;10759;51.982;9.232;2023-07-13T12:49:32;100374.25;;;23.75;48.91
21203;BME280;10759;51.982;9.232;2023-07-13T12:52:04;100370.63;;;23.94;47.26
21203;BME280;10759;51.982;9.232;2023-07-13T12:54:41;100352.03;;;24.27;47.00
21203;BME280;10759;51.982;9.232;2023-07-13T12:57:21;100359.19;;;24.38;47.14
21203;BME280;10759;51.982;9.232;2023-07-13T12:59:52;100356.31;;;24.39;46.84
21203;BME280;10759;51.982;9.232;2023-07-13T13:02:28;100345.97;;;24.24;46.02
21203;BME280;10759;51.982;9.232;2023-07-13T13:04:58;100349.44;;;24.26;46.57
21203;BME280;10759;51.982;9.232;2023-07-13T13:07:27;100313.28;;;24.22;47.22